Time;durP1;ratioP1;P1;durP2;ratioP2;P2;SDS_P1;SDS_P2;PMS_P1;PMS_P2;Temp;Humidity;BMP_temperature;BMP_pressure;BME280_temperature;BME280_humidity;BME280_pressure;Samples;Min_cycle;Max_cycle;Signal;HPM_P1;HPM_P2
2022/05/10 00:00:19;;;;;;;2.80;2.40;;;;;;;13.82;63.02;101462.75;4908239;28;20048;-84
2022/05/10 00:02:58;;;;;;;4.03;2.95;;;;;;;13.82;63.04;101464.50;4918252;28;20049;-83
2022/05/10 00:05:32;;;;;;;4.22;2.50;;;;;;;13.81;62.92;101466.25;4909453;28;20075;-84
2022/05/10 00:08:04;;;;;;;5.68;2.40;;;;;;;13.78;63.49;101461.03;4913147;28;20122;-84
2022/05/10 00:10:31;;;;;;;3.03;2.78;;;;;;;13.78;63.14;101454.88;4911906;28;20352;-86
2022/05/10 00:12:58;;;;;;;4.85;2.70;;;;;;;13.78;63.03;101465.41;4910713;28;20052;-85
2022/05/10 00:15:27;;;;;;;5.38;2.97;;;;;;;13.78;63.01;101457.53;4893506;28;20067;-83
2022/05/10 00:17:53;;;;;;;5.30;3.03;;;;;;;13.78;63.13;101454.88;4911584;28;20479;-84
2022/05/10 00:20:24;;;;;;;10.98;3.05;;;;;;;13.79;63.27;101451.38;4914984;28;20052;-84
2022/05/10 00:22:51;;;;;;;5.70;2.83;;;;;;;13.79;63.50;101454.88;4924393;28;20427;-85
2022/05/10 00:25:24;;;;;;;4.57;3.03;;;;;;;13.80;63.70;101450.50;4907370;28;20048;-82
2022/05/10 00:27:51;;;;;;;4.25;2.58;;;;;;;13.80;64.10;101445.22;4921186;28;20053;-83
2022/05/10 00:30:18;;;;;;;5.75;2.83;;;;;;;13.84;63.96;101449.56;4934440;28;20179;-85
2022/05/10 00:32:46;;;;;;;2.63;2.42;;;;;;;13.85;63.78;101452.19;4931938;28;20044;-81
2022/05/10 00:35:19;;;;;;;7.43;2.80;;;;;;;13.90;63.89;101439.00;4930577;28;20049;-85
2022/05/10 00:37:48;;;;;;;3.43;2.63;;;;;;;13.93;63.74;101438.09;4922276;28;20067;-86
2022/05/10 00:40:20;;;;;;;6.25;3.25;;;;;;;13.96;63.69;101432.78;4902910;28;20799;-86
2022/05/10 00:42:56;;;;;;;3.22;3.03;;;;;;;14.00;63.51;101434.50;4899476;28;20131;-85
2022/05/10 00:45:37;;;;;;;7.63;2.75;;;;;;;14.04;63.45;101425.66;4895008;28;20037;-85
2022/05/10 00:48:11;;;;;;;4.18;2.55;;;;;;;14.10;63.53;101422.97;4995302;28;20040;-86
2022/05/10 00:50:47;;;;;;;4.20;2.28;;;;;;;14.14;63.46;101415.91;4930419;28;20057;-84
2022/05/10 00:53:23;;;;;;;3.42;2.58;;;;;;;14.15;63.25;101413.25;4916928;28;20052;-84
2022/05/10 00:56:04;;;;;;;8.88;3.05;;;;;;;14.15;63.26;101410.63;4909473;28;20044;-84
2022/05/10 00:59:02;;;;;;;4.82;2.85;;;;;;;14.14;63.40;101408.88;4932292;28;20048;-83
2022/05/10 01:01:33;;;;;;;2.92;2.25;;;;;;;14.09;63.27;101401.94;4920884;28;20479;-85
2022/05/10 01:04:25;;;;;;;4.35;2.40;;;;;;;14.05;63.86;101396.72;4917621;28;20055;-86
2022/05/10 01:07:19;;;;;;;3.05;2.78;;;;;;;14.02;63.80;101395.88;4915541;28;20127;-83
2022/05/10 01:09:56;;;;;;;5.03;2.85;;;;;;;13.97;63.91;101382.75;4928633;28;20051;-83
2022/05/10 01:12:41;;;;;;;6.05;2.38;;;;;;;13.93;64.67;101383.66;4901347;28;20095;-85
2022/05/10 01:15:16;;;;;;;4.07;3.47;;;;;;;13.90;64.57;101374.06;4886427;28;20576;-84
2022/05/10 01:17:46;;;;;;;4.05;2.40;;;;;;;13.88;64.48;101377.59;4891662;28;20052;-86
2022/05/10 01:20:21;;;;;;;6.40;2.83;;;;;;;13.87;64.48;101373.22;4893360;28;20051;-85
2022/05/10 01:23:31;;;;;;;4.72;2.72;;;;;;;13.82;64.79;101368.00;4895518;28;20055;-84
2022/05/10 01:26:12;;;;;;;5.80;3.25;;;;;;;13.76;65.16;101361.94;4909796;28;20060;-85
2022/05/10 01:28:49;;;;;;;5.97;2.88;;;;;;;13.71;65.42;101360.25;4911574;28;20051;-84
2022/05/10 01:31:29;;;;;;;3.50;2.70;;;;;;;13.67;65.02;101361.13;4897683;28;20539;-84
2022/05/10 01:34:04;;;;;;;3.85;2.95;;;;;;;13.67;65.10;101370.81;4924250;28;20531;-86
2022/05/10 01:36:58;;;;;;;5.75;2.75;;;;;;;13.66;65.54;101364.69;4893957;28;20139;-85
2022/05/10 01:39:47;;;;;;;4.55;2.67;;;;;;;13.63;65.57;101358.56;4914809;28;20078;-85
2022/05/10 01:42:21;;;;;;;8.43;3.35;;;;;;;13.64;65.76;101358.56;4894048;28;20055;-85
2022/05/10 01:45:12;;;;;;;5.43;3.08;;;;;;;13.62;65.81;101352.41;4939015;28;20162;-86
2022/05/10 01:47:46;;;;;;;3.83;2.60;;;;;;;13.61;65.46;101344.53;4910764;28;20055;-85
2022/05/10 01:50:30;;;;;;;2.92;2.47;;;;;;;13.60;65.97;101343.69;4912686;28;20110;-84
2022/05/10 01:53:21;;;;;;;5.05;2.83;;;;;;;13.57;65.61;101335.81;4910678;28;20043;-85
2022/05/10 01:55:52;;;;;;;2.95;2.70;;;;;;;13.55;66.10;101341.09;4913097;28;20507;-85
2022/05/10 01:58:26;;;;;;;13.68;2.78;;;;;;;13.55;66.12;101334.97;4913659;28;20046;-85
2022/05/10 02:01:08;;;;;;;5.43;3.42;;;;;;;13.56;66.15;101339.34;4911767;28;20052;-85
2022/05/10 02:04:07;;;;;;;6.63;3.17;;;;;;;13.57;65.96;101341.06;4916625;28;20051;-85
2022/05/10 02:06:56;;;;;;;3.38;2.63;;;;;;;13.61;65.90;101339.28;4909482;28;20054;-84
2022/05/10 02:09:41;;;;;;;4.93;2.80;;;;;;;13.66;65.77;101342.75;4896758;28;20051;-84
2022/05/10 02:12:40;;;;;;;6.80;3.13;;;;;;;13.72;65.50;101345.31;4917640;28;20426;-86
2022/05/10 02:15:22;;;;;;;5.00;2.60;;;;;;;13.77;65.25;101340.88;4945358;28;20056;-84
2022/05/10 02:18:10;;;;;;;4.15;2.88;;;;;;;13.80;65.30;101340.81;4895813;28;20040;-85
2022/05/10 02:21:05;;;;;;;4.18;2.45;;;;;;;13.83;65.15;101339.91;4923691;28;20052;-85
2022/05/10 02:23:58;;;;;;;4.07;2.72;;;;;;;13.83;64.95;101332.03;4905165;28;20370;-85
2022/05/10 02:26:39;;;;;;;3.22;2.97;;;;;;;13.80;64.80;101335.56;4929863;28;20048;-85
2022/05/10 02:29:24;;;;;;;3.92;2.83;;;;;;;13.81;64.95;101336.47;4928935;28;20052;-83
2022/05/10 02:34:46;;;;;;;3.33;2.85;;;;;;;13.80;64.94;101330.31;4924520;28;20122;-84
2022/05/10 02:37:14;;;;;;;5.85;2.60;;;;;;;13.83;64.67;101332.03;4981097;28;20044;-85
2022/05/10 02:39:43;;;;;;;5.53;2.88;;;;;;;13.85;64.65;101322.38;4915273;28;20054;-86
2022/05/10 02:42:14;;;;;;;4.20;2.88;;;;;;;13.84;64.56;101321.47;4899768;28;20828;-85
2022/05/10 02:44:43;;;;;;;2.92;2.20;;;;;;;13.83;64.62;101314.50;4904745;28;20067;-86
2022/05/10 02:47:10;;;;;;;4.13;3.03;;;;;;;13.80;64.55;101305.75;4922073;28;20049;-85
2022/05/10 02:49:40;;;;;;;5.88;3.13;;;;;;;13.74;64.58;101306.72;4910918;28;20122;-85
2022/05/10 02:52:07;;;;;;;5.28;3.08;;;;;;;13.70;64.88;101302.34;4895107;28;20044;-85
2022/05/10 02:54:34;;;;;;;10.15;3.15;;;;;;;13.64;65.08;101299.81;4892754;28;20060;-84
2022/05/10 02:57:03;;;;;;;4.47;2.80;;;;;;;13.59;65.47;101296.34;4906301;28;20118;-85
2022/05/10 02:59:37;;;;;;;5.10;2.75;;;;;;;13.55;65.59;101295.50;4896285;28;20040;-85
2022/05/10 03:02:22;;;;;;;5.13;3.00;;;;;;;13.50;65.83;101299.94;4893712;28;20127;-85
2022/05/10 03:04:57;;;;;;;3.50;2.70;;;;;;;13.47;66.15;101302.63;4911930;28;20056;-85
2022/05/10 03:07:27;;;;;;;2.40;2.20;;;;;;;13.42;65.98;101296.53;4910678;28;21337;-85
2022/05/10 03:09:53;;;;;;;4.57;3.20;;;;;;;13.39;66.22;101290.41;4975004;28;20063;-85
2022/05/10 03:12:20;;;;;;;2.80;2.60;;;;;;;13.38;66.19;101293.94;4896918;28;20115;-85
2022/05/10 03:14:47;;;;;;;5.25;3.30;;;;;;;13.39;66.00;101290.41;4887314;28;20087;-85
2022/05/10 03:17:14;;;;;;;3.60;3.10;;;;;;;13.38;66.47;101285.19;4910643;28;20091;-86
2022/05/10 03:19:44;;;;;;;5.82;2.63;;;;;;;13.35;66.15;101286.03;4903288;28;20071;-85
2022/05/10 03:22:12;;;;;;;5.15;2.80;;;;;;;13.34;66.82;101280.81;4891166;28;20498;-85
2022/05/10 03:24:39;;;;;;;4.45;3.13;;;;;;;13.33;66.81;101279.06;4906728;28;20830;-83
2022/05/10 03:27:08;;;;;;;7.30;3.95;;;;;;;13.35;66.37;101277.28;4876626;28;20143;-85
2022/05/10 03:29:35;;;;;;;3.17;2.60;;;;;;;13.36;66.75;101277.31;4909858;28;20071;-86
2022/05/10 03:32:02;;;;;;;6.55;2.92;;;;;;;13.36;66.73;101276.38;4909989;28;20052;-86
2022/05/10 03:37:12;;;;;;;;;;;;;;;13.29;67.08;101272.09;4926650;28;20102;-86
2022/05/10 03:39:39;;;;;;;6.55;2.80;;;;;;;13.30;66.91;101273.84;4897473;28;20290;-85
2022/05/10 03:42:07;;;;;;;4.97;2.25;;;;;;;13.30;66.74;101269.44;4898508;28;20418;-88
2022/05/10 03:44:36;;;;;;;4.63;2.95;;;;;;;13.31;66.74;101275.56;4899591;28;20695;-86
2022/05/10 03:47:03;;;;;;;2.85;2.65;;;;;;;13.34;66.80;101272.91;4894656;28;20084;-86
2022/05/10 03:49:30;;;;;;;5.10;2.75;;;;;;;13.35;66.71;101265.00;4915323;28;20058;-85
2022/05/10 03:51:57;;;;;;;5.95;3.08;;;;;;;13.39;66.84;101260.63;4878876;28;20153;-85
2022/05/10 03:54:26;;;;;;;3.47;3.15;;;;;;;13.42;66.70;101257.09;4909674;28;20048;-87
2022/05/10 03:56:53;;;;;;;3.97;3.20;;;;;;;13.44;66.54;101261.44;4912925;28;20048;-86
2022/05/10 03:59:28;;;;;;;5.65;3.08;;;;;;;13.46;66.16;101258.78;4928892;28;20052;-86
2022/05/10 04:01:58;;;;;;;7.40;3.58;;;;;;;13.49;66.15;101258.75;4926726;28;20060;-86
2022/05/10 04:04:25;;;;;;;6.55;3.13;;;;;;;13.51;65.98;101259.63;4914961;28;20127;-85
2022/05/10 04:06:52;;;;;;;2.55;2.33;;;;;;;13.52;66.10;101253.47;4910966;28;20032;-85
2022/05/10 04:09:18;;;;;;;4.55;2.92;;;;;;;13.55;65.98;101258.69;4904517;28;20059;-88
2022/05/10 04:11:45;;;;;;;8.05;3.30;;;;;;;13.56;65.75;101261.28;4911900;28;20048;-86
2022/05/10 04:14:13;;;;;;;8.60;3.17;;;;;;;13.59;65.87;101260.38;4930749;28;20695;-85
2022/05/10 04:16:40;;;;;;;5.93;3.03;;;;;;;13.64;65.85;101260.34;4921718;28;20059;-84
2022/05/10 04:19:07;;;;;;;7.55;3.80;;;;;;;13.66;65.47;101261.19;4930315;28;20063;-85
2022/05/10 04:21:37;;;;;;;4.90;2.70;;;;;;;13.72;65.47;101253.22;4903327;28;20134;-84
2022/05/10 04:24:04;;;;;;;6.28;3.17;;;;;;;13.77;65.26;101247.91;4923529;28;20048;-85
2022/05/10 04:26:31;;;;;;;3.88;2.53;;;;;;;13.82;64.88;101252.22;4904248;28;20044;-87
2022/05/10 04:28:58;;;;;;;7.05;2.88;;;;;;;13.86;64.68;101251.28;4919630;28;20112;-84
2022/05/10 04:31:26;;;;;;;2.85;2.65;;;;;;;13.91;64.77;101253.88;4904081;28;20047;-85
2022/05/10 04:33:52;;;;;;;3.92;2.75;;;;;;;13.94;64.56;101250.31;4904578;28;20044;-85
2022/05/10 04:36:23;;;;;;;8.80;3.08;;;;;;;13.98;64.33;101244.97;4906607;28;20139;-85
2022/05/10 04:38:50;;;;;;;4.07;2.63;;;;;;;14.02;64.33;101246.69;4917647;28;20139;-84
2022/05/10 04:41:25;;;;;;;5.88;2.90;;;;;;;14.05;64.25;101249.28;4929147;28;20070;-84
2022/05/10 04:44:05;;;;;;;9.95;3.97;;;;;;;14.06;64.20;101251.00;4913039;28;20508;-84
2022/05/10 04:46:35;;;;;;;6.00;3.05;;;;;;;14.07;64.27;101250.13;4943354;28;20080;-85
2022/05/10 04:49:03;;;;;;;5.95;3.63;;;;;;;14.10;64.37;101253.63;4924260;28;20040;-85
2022/05/10 04:51:30;;;;;;;4.13;2.85;;;;;;;14.13;64.12;101249.19;4917786;28;20048;-85
2022/05/10 04:53:57;;;;;;;4.85;3.03;;;;;;;14.17;64.00;101252.63;4898334;28;20064;-85
2022/05/10 04:56:24;;;;;;;7.00;3.42;;;;;;;14.24;63.86;101254.28;4926046;28;20151;-85
2022/05/10 04:58:54;;;;;;;5.68;3.28;;;;;;;14.29;63.76;101252.47;4944344;28;20117;-84
2022/05/10 05:01:25;;;;;;;5.60;3.22;;;;;;;14.32;63.77;101254.16;4916899;28;20059;-86
2022/05/10 05:03:55;;;;;;;3.80;3.42;;;;;;;14.36;63.47;101254.09;4904282;28;20047;-86
2022/05/10 05:06:24;;;;;;;5.18;3.40;;;;;;;14.41;63.26;101254.03;4898080;28;20063;-87
2022/05/10 05:08:51;;;;;;;7.05;3.47;;;;;;;14.46;63.15;101257.47;4902617;28;20056;-85
2022/05/10 05:11:18;;;;;;;5.63;3.25;;;;;;;14.50;63.35;101253.03;4897682;28;20720;-84
2022/05/10 05:13:45;;;;;;;5.80;3.40;;;;;;;14.53;63.05;101251.19;4893920;28;20052;-84
2022/05/10 05:16:12;;;;;;;6.53;3.40;;;;;;;14.61;62.96;101260.75;4912333;28;20124;-84
2022/05/10 05:18:40;;;;;;;7.13;2.88;;;;;;;14.65;62.78;101252.81;4921261;28;21035;-84
2022/05/10 05:21:07;;;;;;;4.15;2.88;;;;;;;14.70;62.98;101252.72;4885167;28;20052;-85
2022/05/10 05:23:33;;;;;;;4.25;2.85;;;;;;;14.76;62.64;101255.28;4908535;28;20078;-85
2022/05/10 05:26:00;;;;;;;9.52;5.50;;;;;;;14.82;62.39;101249.00;4891385;28;20063;-85
2022/05/10 05:28:27;;;;;;;7.05;3.58;;;;;;;14.87;62.40;101247.16;4910748;28;20059;-85
2022/05/10 05:30:54;;;;;;;6.13;3.35;;;;;;;14.92;62.46;101245.31;4909335;28;20044;-86
2022/05/10 05:33:21;;;;;;;8.63;3.03;;;;;;;14.98;62.04;101245.22;4895704;28;20063;-85
2022/05/10 05:35:49;;;;;;;5.90;3.22;;;;;;;15.04;62.17;101255.66;4898564;28;20056;-85
2022/05/10 05:38:15;;;;;;;4.85;3.10;;;;;;;15.07;61.99;101249.47;4918783;28;20048;-85
2022/05/10 05:40:42;;;;;;;6.18;3.20;;;;;;;15.11;61.96;101255.53;4916699;28;20040;-84
2022/05/10 05:43:18;;;;;;;8.05;3.03;;;;;;;15.14;61.84;101252.88;4937258;28;20078;-86
2022/05/10 05:45:45;;;;;;;9.82;3.53;;;;;;;15.18;61.95;101255.41;4889837;28;20044;-85
2022/05/10 05:48:12;;;;;;;5.90;2.53;;;;;;;15.26;61.74;101257.03;4916453;28;20048;-86
2022/05/10 05:50:39;;;;;;;4.20;2.72;;;;;;;15.34;61.51;101258.63;4910039;28;20051;-86
2022/05/10 05:53:09;;;;;;;7.72;2.95;;;;;;;15.44;61.53;101256.69;4905473;28;20056;-85
2022/05/10 05:55:35;;;;;;;7.82;3.58;;;;;;;15.56;61.18;101250.28;4896662;28;20048;-85
2022/05/10 05:58:03;;;;;;;7.30;3.05;;;;;;;15.71;60.88;101251.75;4911583;28;20066;-84
2022/05/10 06:00:30;;;;;;;4.05;2.97;;;;;;;15.81;60.68;101250.69;4911451;28;20083;-85
2022/05/10 06:02:58;;;;;;;7.85;2.85;;;;;;;15.93;60.53;101244.28;4895414;28;20051;-85
2022/05/10 06:05:27;;;;;;;4.32;2.80;;;;;;;16.06;59.98;101244.88;4913386;28;20454;-86
2022/05/10 06:07:54;;;;;;;3.15;2.90;;;;;;;16.15;59.64;101244.66;4910315;28;20198;-85
2022/05/10 06:10:21;;;;;;;10.65;5.50;;;;;;;16.25;59.30;101239.16;4909882;28;20104;-86
2022/05/10 06:12:48;;;;;;;9.07;2.95;;;;;;;16.36;59.15;101242.41;4892069;28;20057;-86
2022/05/10 06:15:20;;;;;;;2.78;1.75;;;;;;;16.46;59.00;101246.56;4910035;28;20412;-85
2022/05/10 06:17:49;;;;;;;5.57;2.75;;;;;;;16.57;58.89;101248.97;4897188;28;20071;-86
2022/05/10 06:20:21;;;;;;;3.08;2.42;;;;;;;16.67;58.57;101247.84;4893411;28;20056;-84
2022/05/10 06:22:52;;;;;;;4.28;2.70;;;;;;;16.73;58.42;101252.09;4923888;28;20075;-86
2022/05/10 06:25:22;;;;;;;7.28;2.65;;;;;;;16.79;58.13;101241.38;4900761;28;20039;-83
2022/05/10 06:27:51;;;;;;;4.75;2.30;;;;;;;16.87;58.00;101239.41;4910996;28;20056;-84
2022/05/10 06:30:20;;;;;;;9.88;3.15;;;;;;;16.97;57.79;101237.44;4923547;28;20044;-85
2022/05/10 06:32:47;;;;;;;4.70;2.72;;;;;;;17.08;57.64;101236.25;4913517;28;20059;-85
2022/05/10 06:35:15;;;;;;;3.63;2.60;;;;;;;17.20;57.25;101244.72;4909559;28;20098;-85
2022/05/10 06:40:28;;;;;;;4.72;2.22;;;;;;;17.45;56.56;101237.91;4917055;28;20068;-86
2022/05/10 06:42:59;;;;;;;2.53;2.33;;;;;;;17.58;56.32;101235.78;4995281;28;20450;-86
2022/05/10 06:45:27;;;;;;;4.20;2.33;;;;;;;17.72;56.10;101228.28;4918363;28;20056;-85
2022/05/10 06:47:55;;;;;;;3.88;2.70;;;;;;;17.89;55.90;101234.88;4903317;28;20470;-86
2022/05/10 06:50:27;;;;;;;5.13;2.40;;;;;;;18.09;55.45;101221.88;4924617;28;20110;-83
2022/05/10 06:52:57;;;;;;;4.32;3.53;;;;;;;18.27;54.91;101227.53;4900744;28;20152;-85
2022/05/10 06:55:32;;;;;;;4.03;2.70;;;;;;;18.51;54.45;101217.91;4915077;28;20052;-85
2022/05/10 06:58:01;;;;;;;4.57;3.13;;;;;;;18.79;53.74;101222.28;4910997;28;20061;-84
2022/05/10 07:00:28;;;;;;;6.90;2.80;;;;;;;19.09;53.07;101212.41;4931791;28;20060;-85
2022/05/10 07:02:58;;;;;;;2.92;2.38;;;;;;;19.48;52.46;101211.03;4930414;28;20049;-84
2022/05/10 07:05:26;;;;;;;4.32;2.50;;;;;;;19.89;51.36;101211.25;4914052;28;20048;-85
2022/05/10 07:07:52;;;;;;;2.95;2.10;;;;;;;20.30;50.03;101211.41;4916380;28;20040;-85
2022/05/10 07:10:27;;;;;;;2.95;2.60;;;;;;;20.79;49.02;101205.84;4897833;28;21396;-85
2022/05/10 07:13:00;;;;;;;4.63;2.42;;;;;;;21.52;46.52;101204.44;4907201;28;20043;-82
2022/05/10 07:15:27;;;;;;;2.60;2.40;;;;;;;22.04;45.16;101202.00;4927093;28;20308;-86
2022/05/10 07:17:55;;;;;;;4.07;2.60;;;;;;;22.22;44.69;101202.91;4905017;28;20150;-86
2022/05/10 07:20:23;;;;;;;3.70;2.05;;;;;;;22.46;44.51;101195.53;4914194;28;20040;-84
2022/05/10 07:22:52;;;;;;;8.50;3.10;;;;;;;22.60;42.60;101197.47;4924741;28;20075;-84
2022/05/10 07:25:31;;;;;;;2.63;2.42;;;;;;;22.45;43.28;101200.94;4915837;28;20076;-84
2022/05/10 07:28:02;;;;;;;5.13;2.50;;;;;;;22.34;43.03;101196.09;4917643;28;20499;-84
2022/05/10 07:30:32;;;;;;;4.03;2.30;;;;;;;22.30;43.23;101200.69;4897086;28;20080;-85
2022/05/10 07:32:58;;;;;;;3.80;2.85;;;;;;;22.23;43.69;101193.13;4916022;28;20052;-86
2022/05/10 07:38:10;;;;;;;3.22;2.35;;;;;;;21.95;43.99;101189.09;4903709;28;20044;-87
2022/05/10 07:40:39;;;;;;;6.30;2.90;;;;;;;21.79;44.13;101199.66;4916130;28;20048;-86
2022/05/10 07:43:18;;;;;;;4.65;3.03;;;;;;;21.63;44.51;101199.50;4915027;28;20174;-85
2022/05/10 07:45:54;;;;;;;5.43;3.25;;;;;;;21.54;44.70;101199.91;4898605;28;20108;-86
2022/05/10 07:48:28;;;;;;;7.18;3.38;;;;;;;21.56;44.56;101193.63;4915336;28;20051;-86
2022/05/10 07:50:56;;;;;;;3.58;3.00;;;;;;;21.68;44.49;101202.81;4892579;28;20098;-84
2022/05/10 07:53:23;;;;;;;4.10;2.15;;;;;;;22.08;44.10;101203.56;4897681;28;20079;-86
2022/05/10 07:55:50;;;;;;;8.07;4.75;;;;;;;22.72;43.03;101197.78;4904049;28;20044;-87
2022/05/10 07:58:18;;;;;;;8.07;3.33;;;;;;;23.30;42.04;101193.91;4911440;28;20044;-86
2022/05/10 08:00:44;;;;;;;4.07;2.70;;;;;;;23.89;41.13;101193.34;4902804;28;20048;-85
2022/05/10 08:03:23;;;;;;;4.57;2.58;;;;;;;24.13;39.84;101190.25;4897758;28;20048;-85
2022/05/10 08:05:54;;;;;;;5.55;3.35;;;;;;;24.10;40.04;101184.13;4894164;28;20060;-86
2022/05/10 08:08:23;;;;;;;4.75;2.83;;;;;;;24.29;40.08;101191.09;4899510;28;20094;-84
2022/05/10 08:10:53;;;;;;;8.40;2.70;;;;;;;24.47;39.51;101188.28;4918487;28;20127;-85
2022/05/10 08:13:27;;;;;;;6.45;2.85;;;;;;;24.56;39.28;101187.72;4914749;28;20071;-85
2022/05/10 08:15:55;;;;;;;7.05;3.05;;;;;;;24.55;38.71;101184.22;4912769;28;20060;-87
2022/05/10 08:18:24;;;;;;;2.83;2.28;;;;;;;24.88;38.44;101191.19;4906421;28;20046;-85
2022/05/10 08:20:57;;;;;;;3.95;2.17;;;;;;;25.17;37.82;101182.31;4925554;28;20058;-85
2022/05/10 08:23:29;;;;;;;3.50;2.40;;;;;;;25.08;37.82;101186.41;4910212;28;20704;-87
2022/05/10 08:26:00;;;;;;;5.65;2.50;;;;;;;25.20;38.07;101184.78;4908699;28;20048;-87
2022/05/10 08:28:34;;;;;;;3.70;3.30;;;;;;;25.53;37.03;101178.31;4894118;28;20056;-85
2022/05/10 08:31:08;;;;;;;3.70;2.97;;;;;;;25.81;36.46;101172.00;4909490;28;20060;-85
2022/05/10 08:33:37;;;;;;;;;;;;;;;25.79;36.06;101178.44;4896538;28;20052;-84
2022/05/10 08:36:06;;;;;;;3.80;2.65;;;;;;;25.84;36.08;101173.63;4917717;28;20785;-84
2022/05/10 08:38:33;;;;;;;4.43;2.92;;;;;;;26.07;35.76;101174.84;4912309;28;20040;-84
2022/05/10 08:41:15;;;;;;;3.97;2.70;;;;;;;26.47;35.13;101171.31;4925589;28;20055;-85
2022/05/10 08:44:08;;;;;;;3.20;2.70;;;;;;;27.37;34.31;101171.34;4947348;28;20055;-84
2022/05/10 08:46:41;;;;;;;;;;;;;;;28.52;32.58;101171.91;4913768;28;20048;-84
2022/05/10 08:49:18;;;;;;;2.88;2.63;;;;;;;29.05;31.75;101169.56;4935839;28;19927;-85
2022/05/10 08:51:45;;;;;;;4.35;2.95;;;;;;;29.16;31.85;101163.31;4931351;28;20051;-87
2022/05/10 08:54:14;;;;;;;4.50;3.08;;;;;;;29.02;31.39;101163.56;4920759;28;20056;-85
2022/05/10 08:56:56;;;;;;;2.50;2.30;;;;;;;28.37;32.19;101158.63;4909637;28;20062;-88
2022/05/10 08:59:41;;;;;;;3.78;2.55;;;;;;;27.27;33.73;101157.69;4947599;28;20055;-86
2022/05/10 09:02:18;;;;;;;4.30;3.13;;;;;;;26.46;35.25;101148.97;4905069;28;20060;-87
2022/05/10 09:05:08;;;;;;;5.90;3.28;;;;;;;26.09;35.65;101156.84;4962478;28;20475;-85
2022/05/10 09:07:48;;;;;;;2.97;2.42;;;;;;;26.40;35.47;101144.88;4980647;28;20288;-87
2022/05/10 09:10:41;;;;;;;3.88;2.90;;;;;;;27.20;34.36;101149.22;4925431;28;20048;-87
2022/05/10 09:13:15;;;;;;;4.45;2.33;;;;;;;27.85;33.34;101147.25;4916756;28;20174;-87
2022/05/10 09:15:49;;;;;;;7.60;3.10;;;;;;;28.42;32.64;101136.75;4917134;28;20124;-86
2022/05/10 09:18:29;;;;;;;3.63;2.60;;;;;;;28.84;31.98;101142.47;4901469;28;20044;-86
2022/05/10 09:21:20;;;;;;;3.30;3.00;;;;;;;29.11;31.37;101135.88;4900964;28;20255;-86
2022/05/10 09:24:32;;;;;;;4.07;2.70;;;;;;;29.54;30.79;101137.81;4915233;28;20048;-85
2022/05/10 09:27:11;;;;;;;;;;;;;;;29.70;30.20;101136.56;4899244;28;20055;-86
2022/05/10 09:29:44;;;;;;;3.95;3.20;;;;;;;29.34;30.92;101131.34;4932450;28;19931;-86
2022/05/10 09:35:27;;;;;;;5.80;3.53;;;;;;;29.63;30.39;101127.25;4900602;28;20095;-85
2022/05/10 09:38:09;;;;;;;6.57;3.58;;;;;;;29.74;29.61;101124.53;4914566;28;20059;-87
2022/05/10 09:40:42;;;;;;;3.20;2.90;;;;;;;29.86;29.39;101111.84;4920358;28;20091;-85
2022/05/10 09:43:25;;;;;;;4.60;3.40;;;;;;;30.16;29.10;101121.94;4919939;28;20049;-84
2022/05/10 09:52:27;;;;;;;6.40;3.05;;;;;;;32.31;26.20;101121.03;4924292;28;20058;-86
2022/05/10 09:54:58;;;;;;;5.68;4.00;;;;;;;32.14;26.16;101109.88;4898203;28;20483;-87
2022/05/10 09:57:32;;;;;;;4.63;3.13;;;;;;;32.22;26.11;101114.63;4901083;28;20155;-87
2022/05/10 10:02:58;;;;;;;5.50;3.15;;;;;;;32.07;26.69;101097.06;5098909;27;1264637;-86
2022/05/10 10:05:34;;;;;;;5.32;3.92;;;;;;;32.10;26.27;101099.50;5086354;28;20065;-82
2022/05/10 10:08:00;;;;;;;3.08;2.88;;;;;;;31.97;26.81;101099.78;5107440;28;20040;-86
2022/05/10 10:10:37;;;;;;;3.95;2.80;;;;;;;32.52;26.55;101098.31;5092469;27;20629;-85
2022/05/10 10:13:32;;;;;;;4.10;3.10;;;;;;;33.43;24.65;101086.81;5084632;28;20039;-85
2022/05/10 10:16:01;;;;;;;5.78;3.40;;;;;;;33.86;24.67;101078.91;5093515;27;20043;-85
2022/05/10 10:18:55;;;;;;;3.03;2.50;;;;;;;34.33;24.49;101081.38;5105531;28;20039;-84
2022/05/10 10:21:50;;;;;;;3.10;2.90;;;;;;;35.43;22.81;101078.00;5095385;28;20058;-85
2022/05/10 10:24:56;;;;;;;5.70;2.67;;;;;;;36.07;22.42;101077.38;5107696;28;20451;-85
2022/05/10 10:27:34;;;;;;;3.38;2.72;;;;;;;36.63;21.70;101080.19;5092209;28;20153;-86
2022/05/10 10:30:27;;;;;;;2.92;2.72;;;;;;;36.51;21.89;101067.97;5096811;28;20091;-85
2022/05/10 10:33:37;;;;;;;2.67;2.47;;;;;;;36.47;21.58;101070.19;5087623;28;20070;-86
2022/05/10 10:36:26;;;;;;;4.65;2.00;;;;;;;37.02;21.75;101073.09;5086490;28;20111;-86
2022/05/10 10:39:05;;;;;;;4.20;2.60;;;;;;;36.84;21.36;101056.97;5089766;28;20115;-82
2022/05/10 10:42:09;;;;;;;6.03;2.60;;;;;;;36.80;20.65;101048.25;5100738;28;20040;-81
2022/05/10 10:44:42;;;;;;;3.83;2.80;;;;;;;36.64;21.52;101059.25;5105543;28;20035;-82
2022/05/10 10:47:18;;;;;;;3.72;3.05;;;;;;;36.38;21.19;101047.53;5089665;28;20051;-82
2022/05/10 10:50:25;;;;;;;3.13;2.72;;;;;;;36.38;20.90;101042.09;5108991;28;20815;-84
2022/05/10 10:52:54;;;;;;;3.47;3.10;;;;;;;35.69;22.00;101028.84;5089484;28;20088;-84
2022/05/10 10:55:26;;;;;;;2.85;2.65;;;;;;;34.97;22.65;101036.66;5088080;28;20046;-81
2022/05/10 10:58:19;;;;;;;3.13;2.50;;;;;;;34.36;23.42;101017.69;5084438;28;20104;-83
2022/05/10 11:00:58;;;;;;;3.33;2.95;;;;;;;33.81;23.57;101030.53;5116710;28;20050;-81
2022/05/10 11:03:55;;;;;;;3.92;3.13;;;;;;;32.57;25.27;101023.69;5090007;28;20197;-82
2022/05/10 11:06:27;;;;;;;3.15;2.95;;;;;;;32.52;25.33;101022.44;5092731;28;20421;-84
2022/05/10 11:09:31;;;;;;;3.20;2.90;;;;;;;33.33;24.11;101010.91;5102610;28;20047;-84
2022/05/10 11:12:26;;;;;;;3.72;2.70;;;;;;;33.87;23.46;101008.19;5088722;28;20100;-82
2022/05/10 11:15:29;;;;;;;3.33;2.75;;;;;;;34.99;22.26;101007.44;5081017;28;20051;-83
2022/05/10 11:18:22;;;;;;;2.55;2.38;;;;;;;35.51;21.87;100993.59;5085978;28;20044;-81
2022/05/10 11:21:07;;;;;;;2.90;2.70;;;;;;;35.22;22.17;100994.91;5094685;28;20056;-83
2022/05/10 11:24:20;;;;;;;7.45;2.97;;;;;;;34.76;22.71;100981.69;5084331;28;20123;-83
2022/05/10 11:27:32;;;;;;;3.17;2.88;;;;;;;34.94;22.49;100995.19;5090326;28;20104;-83
2022/05/10 11:30:11;;;;;;;2.42;2.20;;;;;;;36.24;21.41;100991.88;5065050;28;20048;-82
2022/05/10 11:33:08;;;;;;;2.80;2.35;;;;;;;37.64;19.82;100986.69;5088114;28;20031;-82
2022/05/10 11:36:12;;;;;;;3.28;2.58;;;;;;;37.27;20.10;100977.41;5082939;28;20063;-84
2022/05/10 11:39:16;;;;;;;3.63;2.88;;;;;;;36.69;20.19;100980.47;5096881;28;20050;-81
2022/05/10 11:42:32;;;;;;;2.70;2.50;;;;;;;37.77;19.63;100967.81;5101055;28;20031;-80
2022/05/10 11:45:49;;;;;;;2.75;2.15;;;;;;;38.93;18.05;100961.00;5066281;28;20071;-79
2022/05/10 11:49:00;;;;;;;2.95;2.70;;;;;;;39.10;17.11;100962.44;5082981;28;20134;-81
2022/05/10 11:51:54;;;;;;;4.25;2.80;;;;;;;37.81;17.39;100954.63;5078748;28;20066;-80
2022/05/10 11:54:52;;;;;;;3.78;2.10;;;;;;;35.99;18.80;100955.63;5084031;28;20051;-79
2022/05/10 11:57:21;;;;;;;2.75;2.53;;;;;;;33.86;21.52;100959.44;5100258;28;20264;-81
2022/05/10 11:59:48;;;;;;;2.75;2.47;;;;;;;32.30;22.88;100954.91;5070038;28;20047;-82
2022/05/10 12:02:41;;;;;;;2.80;2.35;;;;;;;30.82;24.37;100957.78;5082772;28;20401;-80
2022/05/10 12:05:12;;;;;;;4.28;2.95;;;;;;;30.34;24.88;100949.38;5084280;28;20043;-81
2022/05/10 12:08:11;;;;;;;6.40;3.28;;;;;;;29.68;25.94;100949.66;5081888;28;20044;-80
2022/05/10 12:10:44;;;;;;;4.03;2.35;;;;;;;29.15;26.81;100951.34;5080991;28;20079;-81
2022/05/10 12:22:14;;;;;;;5.55;2.85;;;;;;;29.89;26.41;100924.56;5082573;28;20035;-79
2022/05/10 12:24:45;;;;;;;4.57;3.40;;;;;;;29.47;27.12;100928.09;5069926;28;20056;-80
2022/05/10 12:27:12;;;;;;;4.78;2.95;;;;;;;29.24;27.56;100919.22;5064552;28;20074;-79
2022/05/10 12:29:39;;;;;;;5.25;2.92;;;;;;;29.68;27.00;100912.75;5079335;28;20094;-79
2022/05/10 12:32:36;;;;;;;2.78;2.60;;;;;;;29.48;27.91;100921.72;5087236;28;20498;-79
2022/05/10 12:35:30;;;;;;;3.45;3.17;;;;;;;29.28;27.85;100912.59;5096202;28;20079;-79
2022/05/10 12:38:03;;;;;;;6.55;2.92;;;;;;;29.96;27.31;100907.69;5096372;28;20048;-79